createdAt,value
2017-09-21T00:00:21.405Z,8.93
2017-09-21T00:01:21.454Z,8.97
2017-09-21T00:02:21.498Z,8.97
2017-09-21T00:03:21.542Z,9.02
2017-09-21T00:04:21.652Z,9.04
2017-09-21T00:05:21.634Z,9.06
2017-09-21T00:06:21.681Z,9.01
2017-09-21T00:07:21.724Z,9.05
2017-09-21T00:08:21.770Z,8.97
2017-09-21T00:09:21.889Z,8.96
2017-09-21T00:10:21.864Z,8.93
2017-09-21T00:11:21.910Z,8.93
2017-09-21T00:12:21.954Z,8.97
2017-09-21T00:13:22.001Z,8.99
2017-09-21T00:14:22.110Z,8.94
2017-09-21T00:15:22.165Z,9.02
2017-09-21T00:16:22.140Z,8.94
2017-09-21T00:17:22.185Z,8.90
2017-09-21T00:18:22.239Z,8.91
2017-09-21T00:19:22.274Z,8.94
2017-09-21T00:20:22.387Z,8.88
2017-09-21T00:21:22.367Z,8.88
2017-09-21T00:22:22.412Z,8.88
2017-09-21T00:23:22.490Z,8.93
2017-09-21T00:24:22.506Z,8.88
2017-09-21T00:25:22.621Z,8.90
2017-09-21T00:26:22.593Z,8.94
2017-09-21T00:27:22.643Z,8.90
2017-09-21T00:28:22.689Z,8.91
2017-09-21T00:29:22.734Z,8.96
2017-09-21T00:30:22.862Z,8.93
2017-09-21T00:31:22.826Z,8.86
2017-09-21T00:32:22.871Z,8.81
2017-09-21T00:33:22.921Z,8.84
2017-09-21T00:34:22.963Z,8.78
2017-09-21T00:35:23.072Z,8.83
2017-09-21T00:36:23.119Z,8.83
2017-09-21T00:37:23.101Z,8.76
2017-09-21T00:38:23.148Z,8.86
2017-09-21T00:39:23.188Z,8.81
2017-09-21T00:40:23.241Z,8.81
2017-09-21T00:41:23.349Z,8.81
2017-09-21T00:42:23.332Z,8.76
2017-09-21T00:43:23.378Z,8.72
2017-09-21T00:44:23.421Z,8.71
2017-09-21T00:45:23.465Z,8.73
2017-09-21T00:46:23.577Z,8.68
2017-09-21T00:47:23.565Z,8.65
2017-09-21T00:48:23.607Z,8.65
2017-09-21T00:49:23.648Z,8.71
2017-09-21T00:50:23.697Z,8.63
2017-09-21T00:51:23.804Z,8.65
2017-09-21T00:52:23.787Z,8.62
2017-09-21T00:53:23.829Z,8.62
2017-09-21T00:54:23.928Z,8.62
2017-09-21T00:55:23.924Z,8.55
2017-09-21T00:56:24.034Z,8.51
2017-09-21T00:57:24.019Z,8.48
2017-09-21T00:58:24.061Z,8.50
2017-09-21T00:59:24.107Z,8.51
2017-09-21T01:00:24.152Z,8.48
2017-09-21T01:01:24.273Z,8.40
2017-09-21T01:02:24.243Z,8.33
2017-09-21T01:03:24.287Z,8.37
2017-09-21T01:04:24.334Z,8.36
2017-09-21T01:05:24.380Z,8.32
2017-09-21T01:06:24.509Z,8.36
2017-09-21T01:07:24.471Z,8.26
2017-09-21T01:08:24.520Z,8.28
2017-09-21T01:09:24.563Z,8.20
2017-09-21T01:10:24.610Z,8.18
2017-09-21T01:11:24.718Z,8.21
2017-09-21T01:12:24.764Z,8.29
2017-09-21T01:13:24.743Z,8.14
2017-09-21T01:14:24.791Z,8.20
2017-09-21T01:15:24.840Z,8.11
2017-09-21T01:16:24.883Z,8.12
2017-09-21T01:17:24.993Z,8.15
2017-09-21T01:18:24.974Z,8.14
2017-09-21T01:19:25.023Z,8.03
2017-09-21T01:20:25.069Z,8.11
2017-09-21T01:21:25.113Z,8.07
2017-09-21T01:22:25.225Z,8.04
2017-09-21T01:23:25.202Z,8.10
2017-09-21T01:24:25.256Z,8.07
2017-09-21T01:25:25.296Z,7.96
2017-09-21T01:26:25.339Z,8.00
2017-09-21T01:27:25.447Z,8.02
2017-09-21T01:28:25.432Z,8.00
2017-09-21T01:29:25.476Z,7.94
2017-09-21T01:30:25.520Z,7.97
2017-09-21T01:31:25.567Z,7.96
2017-09-21T01:32:25.684Z,7.96
2017-09-21T01:33:25.657Z,7.90
2017-09-21T01:34:25.700Z,7.93
2017-09-21T01:35:25.750Z,7.92
2017-09-21T01:36:25.791Z,7.89
2017-09-21T01:37:25.898Z,7.87
2017-09-21T01:38:25.884Z,7.85
2017-09-21T01:39:25.933Z,7.85
2017-09-21T01:40:25.974Z,7.87
2017-09-21T01:41:26.020Z,7.87
2017-09-21T01:42:26.146Z,7.84
2017-09-21T01:43:26.110Z,7.87
2017-09-21T01:44:26.154Z,7.89
2017-09-21T01:45:26.203Z,7.85
2017-09-21T01:46:26.250Z,7.87
2017-09-21T01:47:26.359Z,7.85
2017-09-21T01:48:26.337Z,7.89
2017-09-21T01:49:26.381Z,7.89
2017-09-21T01:50:26.427Z,7.89
2017-09-21T01:51:26.471Z,7.87
2017-09-21T01:52:26.648Z,7.87
2017-09-21T01:53:26.569Z,7.87
2017-09-21T01:54:26.612Z,7.82
2017-09-21T01:55:26.650Z,7.90
2017-09-21T01:56:26.698Z,7.89
2017-09-21T01:57:26.827Z,7.79
2017-09-21T01:58:26.789Z,7.79
2017-09-21T01:59:26.836Z,7.84
2017-09-21T02:00:26.881Z,7.77
2017-09-21T02:01:26.930Z,7.84
2017-09-21T02:02:27.035Z,7.78
2017-09-21T02:03:27.085Z,7.78
2017-09-21T02:04:27.061Z,7.77
2017-09-21T02:05:27.105Z,7.85
2017-09-21T02:06:27.152Z,7.79
2017-09-21T02:07:27.579Z,7.78
2017-09-21T02:08:28.568Z,7.78
2017-09-21T02:09:28.015Z,7.79
2017-09-21T02:10:27.774Z,7.77
2017-09-21T02:11:27.563Z,7.69
2017-09-21T02:12:27.422Z,7.71
2017-09-21T02:13:27.532Z,7.62
2017-09-21T02:14:27.516Z,7.59
2017-09-21T02:15:27.562Z,7.58
2017-09-21T02:16:27.603Z,7.58
2017-09-21T02:17:27.647Z,7.62
2017-09-21T02:18:27.759Z,7.59
2017-09-21T02:19:27.745Z,7.45
2017-09-21T02:20:27.784Z,7.49
2017-09-21T02:21:27.827Z,7.50
2017-09-21T02:22:27.871Z,7.50
2017-09-21T02:23:27.989Z,7.47
2017-09-21T02:24:27.964Z,7.40
2017-09-21T02:25:28.007Z,7.31
2017-09-21T02:26:28.056Z,7.37
2017-09-21T02:27:28.097Z,7.38
2017-09-21T02:28:28.207Z,7.38
2017-09-21T02:29:28.252Z,7.40
2017-09-21T02:30:28.235Z,7.47
2017-09-21T02:31:28.281Z,7.40
2017-09-21T02:32:28.323Z,7.40
2017-09-21T02:33:28.369Z,7.34
2017-09-21T02:34:28.482Z,7.35
2017-09-21T02:35:28.462Z,7.37
2017-09-21T02:36:28.508Z,7.31
2017-09-21T02:37:28.548Z,7.32
2017-09-21T02:38:28.592Z,7.29
2017-09-21T02:39:28.705Z,7.27
2017-09-21T02:40:28.686Z,7.31
2017-09-21T02:41:28.727Z,7.24
2017-09-21T02:42:28.773Z,7.31
2017-09-21T02:43:28.817Z,7.23
2017-09-21T02:44:28.927Z,7.24
2017-09-21T02:45:28.910Z,7.22
2017-09-21T02:46:28.954Z,7.24
2017-09-21T02:47:28.998Z,7.27
2017-09-21T02:48:29.042Z,7.22
2017-09-21T02:49:29.152Z,7.15
2017-09-21T02:50:29.131Z,7.19
2017-09-21T02:51:29.178Z,7.17
2017-09-21T02:52:29.222Z,7.19
2017-09-21T02:53:29.274Z,7.16
2017-09-21T02:54:29.423Z,7.13
2017-09-21T02:55:29.357Z,7.13
2017-09-21T02:56:29.400Z,7.05
2017-09-21T02:57:29.445Z,7.02
2017-09-21T02:58:29.489Z,6.91
2017-09-21T02:59:29.607Z,6.89
2017-09-21T03:00:29.588Z,6.98
2017-09-21T03:01:29.624Z,6.87
2017-09-21T03:02:29.673Z,6.91
2017-09-21T03:03:29.716Z,6.94
2017-09-21T03:04:29.822Z,6.95
2017-09-21T03:05:29.866Z,6.90
2017-09-21T03:06:29.848Z,6.95
2017-09-21T03:07:29.891Z,6.91
2017-09-21T03:08:29.938Z,6.95
2017-09-21T03:09:29.982Z,6.91
2017-09-21T03:10:30.100Z,6.90
2017-09-21T03:11:30.072Z,6.91
2017-09-21T03:12:30.116Z,6.95
2017-09-21T03:13:30.165Z,6.79
2017-09-21T03:14:30.207Z,6.84
2017-09-21T03:15:30.316Z,6.83
2017-09-21T03:16:30.295Z,6.77
2017-09-21T03:17:30.345Z,6.79
2017-09-21T03:18:30.384Z,6.79
2017-09-21T03:19:30.428Z,6.80
2017-09-21T03:20:30.556Z,6.80
2017-09-21T03:21:30.521Z,6.79
2017-09-21T03:22:30.567Z,6.83
2017-09-21T03:23:30.605Z,6.79
2017-09-21T03:24:30.651Z,6.77
2017-09-21T03:25:30.772Z,6.80
2017-09-21T03:26:30.740Z,6.81
2017-09-21T03:27:30.783Z,6.84
2017-09-21T03:28:30.829Z,6.83
2017-09-21T03:29:30.873Z,6.83
2017-09-21T03:30:30.987Z,6.91
2017-09-21T03:31:31.029Z,6.76
2017-09-21T03:32:31.007Z,6.94
2017-09-21T03:33:31.059Z,6.97
2017-09-21T03:34:31.098Z,6.80
2017-09-21T03:35:31.142Z,6.76
2017-09-21T03:36:31.252Z,6.94
2017-09-21T03:37:31.231Z,6.84
2017-09-21T03:38:31.278Z,6.87
2017-09-21T03:39:31.322Z,6.86
2017-09-21T03:40:31.366Z,6.87
2017-09-21T03:41:31.473Z,6.87
2017-09-21T03:42:31.455Z,6.79
2017-09-21T03:43:31.499Z,6.83
2017-09-21T03:44:31.543Z,6.83
2017-09-21T03:45:31.586Z,6.83
2017-09-21T03:46:31.697Z,6.68
2017-09-21T03:47:31.680Z,6.71
2017-09-21T03:48:31.724Z,6.68
2017-09-21T03:49:31.768Z,6.77
2017-09-21T03:50:31.814Z,6.76
2017-09-21T03:51:31.918Z,6.73
2017-09-21T03:52:31.902Z,6.68
2017-09-21T03:53:31.949Z,6.68
2017-09-21T03:54:31.995Z,6.59
2017-09-21T03:55:32.036Z,6.61
2017-09-21T03:56:32.162Z,6.59
2017-09-21T03:57:32.123Z,6.61
2017-09-21T03:58:32.169Z,6.62
2017-09-21T03:59:32.218Z,6.51
2017-09-21T04:00:32.257Z,6.61
2017-09-21T04:01:32.375Z,6.62
2017-09-21T04:02:32.348Z,6.53
2017-09-21T04:03:32.391Z,6.61
2017-09-21T04:04:32.435Z,6.65
2017-09-21T04:05:32.481Z,6.63
2017-09-21T04:06:32.596Z,6.54
2017-09-21T04:07:32.568Z,6.65
2017-09-21T04:08:32.613Z,6.68
2017-09-21T04:09:32.661Z,6.61
2017-09-21T04:10:32.709Z,6.66
2017-09-21T04:11:32.828Z,6.62
2017-09-21T04:12:32.793Z,6.66
2017-09-21T04:13:32.839Z,6.66
2017-09-21T04:14:32.877Z,6.62
2017-09-21T04:15:32.924Z,6.63
2017-09-21T04:16:33.031Z,6.63
2017-09-21T04:17:33.079Z,6.66
2017-09-21T04:18:33.063Z,6.69
2017-09-21T04:19:33.102Z,6.71
2017-09-21T04:20:33.148Z,6.80
2017-09-21T04:21:33.191Z,6.80
2017-09-21T04:22:33.304Z,6.79
2017-09-21T04:23:33.277Z,6.90
2017-09-21T04:24:33.329Z,6.90
2017-09-21T04:25:33.370Z,6.97
2017-09-21T04:26:33.414Z,6.89
2017-09-21T04:27:33.521Z,6.90
2017-09-21T04:28:33.504Z,6.95
2017-09-21T04:29:33.551Z,6.91
2017-09-21T04:30:33.592Z,6.91
2017-09-21T04:31:33.637Z,6.94
2017-09-21T04:32:33.745Z,6.95
2017-09-21T04:33:33.726Z,6.90
2017-09-21T04:34:33.771Z,6.94
2017-09-21T04:35:33.813Z,6.89
2017-09-21T04:36:33.859Z,6.95
2017-09-21T04:37:33.967Z,6.90
2017-09-21T04:38:33.947Z,6.95
2017-09-21T04:39:33.991Z,6.94
2017-09-21T04:40:34.037Z,6.98
2017-09-21T04:41:34.081Z,6.94
2017-09-21T04:42:34.204Z,6.90
2017-09-21T04:43:34.171Z,6.90
2017-09-21T04:44:34.215Z,6.79
2017-09-21T04:45:34.259Z,6.97
2017-09-21T04:46:34.305Z,6.84
2017-09-21T04:47:34.421Z,6.80
2017-09-21T04:48:34.393Z,6.84
2017-09-21T04:49:34.440Z,6.90
2017-09-21T04:50:34.483Z,6.99
2017-09-21T04:51:34.530Z,6.94
2017-09-21T04:52:34.650Z,6.91
2017-09-21T04:53:34.614Z,6.91
2017-09-21T04:54:34.663Z,6.94
2017-09-21T04:55:34.703Z,6.86
2017-09-21T04:56:34.748Z,6.97
2017-09-21T04:57:34.863Z,6.90
2017-09-21T04:58:34.838Z,6.89
2017-09-21T04:59:34.880Z,6.90
2017-09-21T05:00:34.926Z,6.84
2017-09-21T05:01:34.973Z,6.89
2017-09-21T05:02:35.078Z,6.91
2017-09-21T05:03:35.127Z,6.91
2017-09-21T05:04:35.104Z,6.98
2017-09-21T05:05:35.148Z,6.98
2017-09-21T05:06:35.192Z,6.99
2017-09-21T05:07:35.242Z,7.07
2017-09-21T05:08:35.356Z,7.12
2017-09-21T05:09:35.325Z,7.04
2017-09-21T05:10:35.369Z,7.09
2017-09-21T05:11:35.413Z,7.01
2017-09-21T05:12:35.459Z,6.99
2017-09-21T05:13:35.585Z,7.05
2017-09-21T05:14:35.546Z,7.01
2017-09-21T05:15:35.591Z,7.04
2017-09-21T05:16:35.639Z,7.04
2017-09-21T05:17:35.682Z,7.12
2017-09-21T05:18:35.800Z,7.13
2017-09-21T05:19:35.769Z,7.13
2017-09-21T05:20:35.813Z,7.17
2017-09-21T05:21:35.864Z,7.17
2017-09-21T05:22:35.903Z,7.12
2017-09-21T05:23:36.010Z,7.16
2017-09-21T05:24:36.056Z,7.02
2017-09-21T05:25:36.037Z,7.04
2017-09-21T05:26:36.086Z,6.97
2017-09-21T05:27:36.128Z,6.91
2017-09-21T05:28:36.171Z,6.94
2017-09-21T05:29:36.284Z,6.98
2017-09-21T05:30:36.258Z,6.95
2017-09-21T05:31:36.306Z,6.89
2017-09-21T05:32:36.366Z,6.95
2017-09-21T05:33:36.395Z,6.89
2017-09-21T05:34:36.500Z,6.94
2017-09-21T05:35:36.480Z,6.91
2017-09-21T05:36:36.524Z,6.89
2017-09-21T05:37:36.570Z,6.94
2017-09-21T05:38:36.611Z,6.91
2017-09-21T05:39:36.729Z,6.99
2017-09-21T05:40:36.701Z,6.99
2017-09-21T05:41:36.748Z,7.13
2017-09-21T05:42:36.794Z,7.02
2017-09-21T05:43:36.838Z,7.13
2017-09-21T05:44:36.946Z,7.13
2017-09-21T05:45:36.989Z,7.17
2017-09-21T05:46:36.969Z,7.19
2017-09-21T05:47:37.012Z,7.27
2017-09-21T05:48:37.056Z,7.22
2017-09-21T05:49:37.103Z,7.20
2017-09-21T05:50:37.221Z,7.16
2017-09-21T05:51:37.191Z,7.17
2017-09-21T05:52:37.235Z,7.20
2017-09-21T05:53:37.284Z,7.19
2017-09-21T05:54:37.325Z,7.20
2017-09-21T05:55:37.454Z,7.32
2017-09-21T05:56:37.414Z,7.34
2017-09-21T05:57:37.459Z,7.26
2017-09-21T05:58:37.505Z,7.26
2017-09-21T05:59:37.555Z,7.40
2017-09-21T06:00:37.667Z,7.38
2017-09-21T06:01:37.639Z,7.42
2017-09-21T06:02:37.686Z,7.44
2017-09-21T06:03:37.729Z,7.45
2017-09-21T06:04:37.773Z,7.60
2017-09-21T06:05:37.899Z,7.58
2017-09-21T06:06:37.930Z,7.62
2017-09-21T06:07:37.905Z,7.72
2017-09-21T06:08:37.956Z,7.87
2017-09-21T06:09:37.994Z,7.85
2017-09-21T06:10:38.041Z,7.93
2017-09-21T06:11:38.150Z,7.94
2017-09-21T06:12:38.129Z,8.07
2017-09-21T06:13:38.177Z,8.02
2017-09-21T06:14:38.220Z,8.11
2017-09-21T06:15:38.266Z,8.10
2017-09-21T06:16:38.373Z,8.25
2017-09-21T06:17:38.353Z,8.28
2017-09-21T06:18:38.399Z,8.26
2017-09-21T06:19:38.443Z,8.28
2017-09-21T06:20:38.489Z,8.26
2017-09-21T06:21:38.594Z,8.32
2017-09-21T06:22:38.582Z,8.32
2017-09-21T06:23:38.629Z,8.32
2017-09-21T06:24:38.670Z,8.44
2017-09-21T06:25:38.714Z,8.48
2017-09-21T06:26:38.842Z,8.48
2017-09-21T06:27:38.804Z,8.55
2017-09-21T06:28:38.847Z,8.62
2017-09-21T06:29:38.897Z,8.69
2017-09-21T06:30:38.941Z,8.73
2017-09-21T06:31:39.061Z,8.87
2017-09-21T06:32:39.033Z,8.86
2017-09-21T06:33:39.075Z,8.86
2017-09-21T06:34:39.126Z,8.91
2017-09-21T06:35:39.169Z,8.91
2017-09-21T06:36:39.293Z,9.01
2017-09-21T06:37:39.266Z,9.06
2017-09-21T06:38:39.312Z,9.25
2017-09-21T06:39:39.348Z,9.25
2017-09-21T06:40:39.395Z,9.39
2017-09-21T06:41:39.512Z,9.76
2017-09-21T06:42:39.484Z,10.78
2017-09-21T06:43:39.531Z,11.82
2017-09-21T06:44:39.576Z,12.78
2017-09-21T06:45:39.626Z,12.81
2017-09-21T06:46:39.742Z,13.55
2017-09-21T06:47:39.718Z,14.21
2017-09-21T06:48:39.761Z,14.20
2017-09-21T06:49:39.813Z,14.64
2017-09-21T06:50:39.854Z,14.72
2017-09-21T06:51:39.971Z,14.67
2017-09-21T06:52:39.949Z,15.12
2017-09-21T06:53:39.993Z,15.61
2017-09-21T06:54:40.039Z,16.16
2017-09-21T06:55:40.085Z,16.37
2017-09-21T06:56:40.217Z,15.99
2017-09-21T06:57:40.181Z,15.59
2017-09-21T06:58:40.228Z,16.04
2017-09-21T06:59:40.274Z,16.25
2017-09-21T07:00:40.328Z,16.52
2017-09-21T07:01:40.444Z,16.65
2017-09-21T07:02:40.418Z,16.56
2017-09-21T07:03:40.467Z,16.67
2017-09-21T07:04:40.518Z,16.58
2017-09-21T07:05:40.563Z,16.55
2017-09-21T07:06:40.676Z,16.27
2017-09-21T07:07:40.725Z,16.60
2017-09-21T07:08:40.708Z,16.96
2017-09-21T07:09:40.753Z,16.88
2017-09-21T07:10:40.806Z,16.85
2017-09-21T07:11:40.853Z,16.70
2017-09-21T07:12:40.964Z,17.08
2017-09-21T07:13:40.945Z,17.29
2017-09-21T07:14:41.024Z,17.14
2017-09-21T07:15:41.043Z,17.40
2017-09-21T07:16:41.092Z,17.11
2017-09-21T07:17:41.203Z,17.04
2017-09-21T07:18:41.188Z,16.93
2017-09-21T07:19:41.237Z,16.77
2017-09-21T07:20:41.286Z,16.44
2017-09-21T07:21:41.370Z,16.49
2017-09-21T07:22:41.448Z,16.74
2017-09-21T07:23:41.436Z,16.77
2017-09-21T07:24:41.482Z,16.75
2017-09-21T07:25:41.531Z,16.90
2017-09-21T07:26:41.579Z,16.95
2017-09-21T07:27:41.695Z,17.22
2017-09-21T07:28:41.678Z,17.63
2017-09-21T07:29:41.727Z,17.57
2017-09-21T07:30:41.779Z,17.33
2017-09-21T07:31:41.826Z,17.82
2017-09-21T07:32:41.941Z,18.03
2017-09-21T07:33:41.926Z,17.64
2017-09-21T07:34:41.972Z,18.07
2017-09-21T07:35:42.028Z,18.29
2017-09-21T07:36:42.071Z,18.27
2017-09-21T07:37:42.189Z,18.19
2017-09-21T07:38:42.172Z,17.97
2017-09-21T07:39:42.221Z,17.70
2017-09-21T07:40:42.271Z,17.87
2017-09-21T07:41:42.319Z,18.13
2017-09-21T07:42:42.454Z,18.18
2017-09-21T07:43:42.420Z,18.10
2017-09-21T07:44:42.472Z,18.27
2017-09-21T07:45:42.519Z,17.20
2017-09-21T07:46:42.579Z,17.67
2017-09-21T07:47:42.693Z,17.53
2017-09-21T07:48:42.668Z,17.25
2017-09-21T07:49:42.720Z,17.35
2017-09-21T07:50:42.769Z,17.48
2017-09-21T07:51:42.819Z,17.43
2017-09-21T07:52:42.951Z,17.70
2017-09-21T07:53:42.966Z,17.95
2017-09-21T07:54:42.975Z,18.12
2017-09-21T07:55:43.022Z,17.95
2017-09-21T07:56:43.072Z,18.12
2017-09-21T07:57:43.197Z,17.59
2017-09-21T07:58:43.169Z,17.40
2017-09-21T07:59:43.221Z,17.66
2017-09-21T08:00:43.270Z,17.23
2017-09-21T08:01:43.321Z,17.57
2017-09-21T08:02:43.458Z,17.18
2017-09-21T08:03:43.420Z,17.47
2017-09-21T08:04:43.474Z,17.71
2017-09-21T08:05:43.523Z,17.91
2017-09-21T08:06:43.576Z,18.15
2017-09-21T08:07:43.698Z,17.50
2017-09-21T08:08:43.673Z,17.25
2017-09-21T08:09:43.728Z,17.57
2017-09-21T08:10:43.774Z,18.00
2017-09-21T08:11:43.823Z,18.15
2017-09-21T08:12:43.939Z,17.85
2017-09-21T08:13:43.990Z,18.03
2017-09-21T08:14:43.982Z,17.50
2017-09-21T08:15:44.030Z,17.91
2017-09-21T08:16:44.077Z,17.89
2017-09-21T08:17:44.131Z,17.99
2017-09-21T08:18:44.246Z,17.70
2017-09-21T08:19:44.229Z,17.48
2017-09-21T08:20:44.283Z,17.82
2017-09-21T08:21:44.336Z,18.03
2017-09-21T08:22:44.385Z,17.44
2017-09-21T08:23:44.516Z,17.03
2017-09-21T08:24:44.485Z,16.16
2017-09-21T08:25:44.537Z,16.40
2017-09-21T08:26:44.589Z,17.17
2017-09-21T08:27:44.638Z,17.76
2017-09-21T08:28:44.768Z,18.28
2017-09-21T08:29:44.740Z,18.74
2017-09-21T08:30:44.792Z,18.13
2017-09-21T08:31:44.842Z,17.28
2017-09-21T08:32:44.893Z,17.20
2017-09-21T08:33:45.007Z,16.67
2017-09-21T08:34:45.066Z,16.98
2017-09-21T08:35:45.046Z,17.15
2017-09-21T08:36:45.098Z,17.44
2017-09-21T08:37:45.154Z,17.20
2017-09-21T08:38:45.203Z,17.38
2017-09-21T08:39:45.314Z,17.08
2017-09-21T08:40:45.299Z,16.33
2017-09-21T08:41:45.351Z,16.58
2017-09-21T08:42:45.406Z,16.16
2017-09-21T08:43:45.455Z,16.04
2017-09-21T08:44:45.570Z,16.89
2017-09-21T08:45:45.558Z,16.65
2017-09-21T08:46:45.610Z,16.22
2017-09-21T08:47:45.658Z,16.86
2017-09-21T08:48:45.713Z,17.23
2017-09-21T08:49:45.827Z,17.70
2017-09-21T08:50:45.814Z,17.46
2017-09-21T08:51:45.866Z,17.43
2017-09-21T08:52:45.915Z,17.81
2017-09-21T08:53:45.969Z,17.92
2017-09-21T08:54:46.083Z,17.84
2017-09-21T08:55:46.067Z,17.71
2017-09-21T08:56:46.119Z,17.44
2017-09-21T08:57:46.177Z,17.66
2017-09-21T08:58:46.264Z,17.20
2017-09-21T08:59:46.347Z,17.38
2017-09-21T09:00:46.327Z,17.30
2017-09-21T09:01:46.377Z,17.69
2017-09-21T09:02:46.434Z,17.04
2017-09-21T09:03:46.481Z,16.78
2017-09-21T09:04:46.615Z,17.20
2017-09-21T09:05:46.584Z,17.87
2017-09-21T09:06:46.637Z,18.40
2017-09-21T09:07:46.686Z,18.76
2017-09-21T09:08:46.740Z,18.87
2017-09-21T09:09:46.876Z,18.97
2017-09-21T09:10:46.846Z,18.97
2017-09-21T09:11:46.895Z,18.94
2017-09-21T09:12:46.947Z,19.02
2017-09-21T09:13:46.998Z,19.10
2017-09-21T09:14:47.117Z,18.86
2017-09-21T09:15:47.177Z,18.47
2017-09-21T09:16:47.157Z,18.25
2017-09-21T09:17:47.210Z,18.03
2017-09-21T09:18:47.262Z,18.25
2017-09-21T09:19:47.394Z,18.64
2017-09-21T09:20:47.367Z,17.89
2017-09-21T09:21:47.419Z,18.34
2017-09-21T09:22:47.471Z,18.76
2017-09-21T09:23:47.524Z,18.79
2017-09-21T09:24:47.647Z,18.86
2017-09-21T09:25:47.627Z,19.14
2017-09-21T09:26:47.684Z,19.40
2017-09-21T09:27:47.734Z,19.78
2017-09-21T09:28:47.785Z,20.02
2017-09-21T09:29:47.903Z,20.24
2017-09-21T09:30:47.963Z,20.23
2017-09-21T09:31:47.949Z,20.23
2017-09-21T09:32:48.001Z,20.09
2017-09-21T09:33:48.055Z,19.68
2017-09-21T09:34:48.107Z,19.20
2017-09-21T09:35:48.222Z,19.13
2017-09-21T09:36:48.213Z,19.11
2017-09-21T09:37:48.267Z,19.05
2017-09-21T09:38:48.729Z,19.15
2017-09-21T09:39:48.376Z,19.24
2017-09-21T09:40:48.491Z,19.39
2017-09-21T09:41:48.479Z,19.40
2017-09-21T09:42:48.533Z,19.58
2017-09-21T09:43:48.585Z,19.39
2017-09-21T09:44:48.640Z,19.32
2017-09-21T09:45:48.758Z,19.42
2017-09-21T09:46:48.751Z,19.31
2017-09-21T09:47:48.798Z,19.35
2017-09-21T09:48:48.854Z,19.32
2017-09-21T09:49:48.910Z,19.53
2017-09-21T09:50:49.030Z,19.72
2017-09-21T09:51:49.015Z,19.68
2017-09-21T09:52:49.070Z,19.79
2017-09-21T09:53:49.131Z,19.53
2017-09-21T09:54:49.178Z,19.43
2017-09-21T09:55:49.302Z,19.21
2017-09-21T09:56:49.284Z,19.18
2017-09-21T09:57:49.338Z,19.14
2017-09-21T09:58:49.394Z,19.21
2017-09-21T09:59:49.450Z,19.42
2017-09-21T10:00:49.585Z,19.73
2017-09-21T10:01:49.554Z,19.86
2017-09-21T10:02:49.608Z,19.94
2017-09-21T10:03:49.665Z,19.95
2017-09-21T10:04:49.717Z,19.84
2017-09-21T10:05:49.834Z,19.94
2017-09-21T10:06:49.889Z,20.09
2017-09-21T10:07:49.878Z,20.16
2017-09-21T10:08:49.935Z,20.25
2017-09-21T10:09:49.986Z,20.47
2017-09-21T10:10:50.040Z,20.66
2017-09-21T10:11:50.162Z,20.64
2017-09-21T10:12:50.150Z,20.62
2017-09-21T10:13:50.204Z,20.50
2017-09-21T10:14:50.258Z,20.18
2017-09-21T10:15:50.315Z,20.24
2017-09-21T10:16:50.430Z,20.39
2017-09-21T10:17:50.431Z,20.23
2017-09-21T10:18:50.485Z,20.20
2017-09-21T10:19:50.530Z,20.34
2017-09-21T10:20:50.584Z,20.59
2017-09-21T10:21:50.705Z,20.24
2017-09-21T10:22:50.693Z,20.34
2017-09-21T10:23:50.752Z,20.61
2017-09-21T10:24:50.803Z,20.87
2017-09-21T10:25:50.859Z,20.64
2017-09-21T10:26:50.973Z,20.49
2017-09-21T10:27:50.967Z,20.80
2017-09-21T10:28:51.022Z,20.91
2017-09-21T10:29:51.073Z,20.77
2017-09-21T10:30:51.128Z,20.13
2017-09-21T10:31:51.275Z,19.33
2017-09-21T10:32:51.237Z,19.40
2017-09-21T10:33:51.294Z,19.40
2017-09-21T10:34:51.352Z,19.66
2017-09-21T10:35:51.405Z,19.83
2017-09-21T10:36:51.533Z,19.91
2017-09-21T10:37:51.511Z,19.63
2017-09-21T10:38:51.572Z,20.00
2017-09-21T10:39:51.623Z,20.00
2017-09-21T10:40:51.674Z,19.47
2017-09-21T10:41:51.816Z,19.72
2017-09-21T10:42:51.783Z,19.98
2017-09-21T10:43:51.841Z,20.15
2017-09-21T10:44:51.902Z,20.15
2017-09-21T10:45:51.949Z,20.66
2017-09-21T10:46:52.080Z,20.79
2017-09-21T10:47:52.057Z,20.18
2017-09-21T10:48:52.114Z,20.33
2017-09-21T10:49:52.165Z,20.65
2017-09-21T10:50:52.221Z,20.23
2017-09-21T10:51:52.366Z,19.58
2017-09-21T10:52:52.329Z,19.15
2017-09-21T10:53:52.389Z,19.50
2017-09-21T10:54:52.440Z,19.50
2017-09-21T10:55:52.496Z,19.33
2017-09-21T10:56:52.624Z,19.66
2017-09-21T10:57:52.604Z,20.06
2017-09-21T10:58:52.663Z,20.47
2017-09-21T10:59:52.715Z,20.90
2017-09-21T11:00:52.778Z,20.99
2017-09-21T11:01:52.913Z,21.01
2017-09-21T11:02:52.881Z,20.90
2017-09-21T11:03:52.936Z,20.31
2017-09-21T11:04:52.989Z,19.70
2017-09-21T11:05:53.043Z,19.83
2017-09-21T11:06:53.183Z,19.78
2017-09-21T11:07:53.155Z,19.68
2017-09-21T11:08:53.212Z,19.72
2017-09-21T11:09:53.269Z,19.63
2017-09-21T11:10:53.321Z,19.46
2017-09-21T11:11:53.463Z,19.86
2017-09-21T11:12:53.432Z,20.53
2017-09-21T11:13:53.488Z,20.28
2017-09-21T11:14:53.541Z,20.65
2017-09-21T11:15:53.595Z,20.89
2017-09-21T11:16:53.716Z,21.08
2017-09-21T11:17:53.773Z,21.17
2017-09-21T11:18:53.767Z,21.44
2017-09-21T11:19:53.821Z,21.79
2017-09-21T11:20:53.876Z,21.92
2017-09-21T11:21:53.930Z,22.23
2017-09-21T11:22:54.054Z,22.01
2017-09-21T11:23:54.041Z,21.39
2017-09-21T11:24:54.098Z,20.66
2017-09-21T11:25:54.155Z,20.66
2017-09-21T11:26:54.210Z,20.30
2017-09-21T11:27:54.336Z,19.93
2017-09-21T11:28:54.324Z,19.97
2017-09-21T11:29:54.378Z,20.38
2017-09-21T11:30:54.444Z,19.79
2017-09-21T11:31:54.495Z,19.75
2017-09-21T11:32:54.631Z,19.39
2017-09-21T11:33:54.606Z,18.80
2017-09-21T11:34:54.661Z,18.67
2017-09-21T11:35:54.717Z,18.82
2017-09-21T11:36:54.772Z,18.52
2017-09-21T11:37:54.911Z,18.22
2017-09-21T11:38:54.883Z,18.39
2017-09-21T11:39:54.938Z,18.83
2017-09-21T11:40:55.001Z,19.39
2017-09-21T11:41:55.052Z,19.57
2017-09-21T11:42:55.172Z,20.27
2017-09-21T11:43:55.224Z,20.91
2017-09-21T11:44:55.217Z,21.50
2017-09-21T11:45:55.272Z,21.51
2017-09-21T11:46:55.329Z,20.90
2017-09-21T11:47:55.471Z,20.68
2017-09-21T11:48:55.440Z,20.65
2017-09-21T11:49:55.498Z,20.43
2017-09-21T11:50:55.552Z,20.09
2017-09-21T11:51:55.606Z,20.15
2017-09-21T11:52:55.727Z,20.49
2017-09-21T11:53:55.783Z,20.61
2017-09-21T11:54:55.777Z,20.06
2017-09-21T11:55:55.834Z,20.33
2017-09-21T11:56:55.886Z,20.95
2017-09-21T11:57:55.945Z,21.41
2017-09-21T11:58:56.063Z,21.94
2017-09-21T11:59:56.055Z,21.78
2017-09-21T12:00:56.111Z,21.75
2017-09-21T12:01:56.168Z,21.97
2017-09-21T12:02:56.225Z,22.37
2017-09-21T12:03:56.346Z,22.62
2017-09-21T12:04:56.337Z,22.65
2017-09-21T12:05:56.394Z,22.49
2017-09-21T12:06:56.451Z,22.31
2017-09-21T12:07:56.508Z,22.29
2017-09-21T12:08:56.632Z,22.29
2017-09-21T12:09:56.625Z,22.52
2017-09-21T12:10:56.682Z,22.65
2017-09-21T12:11:56.742Z,22.78
2017-09-21T12:12:56.796Z,23.01
2017-09-21T12:13:56.928Z,22.94
2017-09-21T12:14:56.915Z,23.15
2017-09-21T12:15:56.970Z,23.31
2017-09-21T12:16:57.029Z,22.28
2017-09-21T12:17:57.087Z,22.31
2017-09-21T12:18:57.212Z,22.67
2017-09-21T12:19:57.206Z,23.07
2017-09-21T12:20:57.263Z,22.56
2017-09-21T12:21:57.320Z,22.50
2017-09-21T12:22:57.380Z,22.71
2017-09-21T12:23:57.522Z,23.15
2017-09-21T12:24:57.499Z,23.04
2017-09-21T12:25:57.556Z,23.05
2017-09-21T12:26:57.618Z,23.27
2017-09-21T12:27:57.673Z,23.64
2017-09-21T12:28:57.817Z,23.75
2017-09-21T12:29:57.792Z,23.61
2017-09-21T12:30:57.851Z,23.68
2017-09-21T12:31:57.912Z,23.75
2017-09-21T12:32:57.969Z,23.70
2017-09-21T12:33:58.095Z,23.72
2017-09-21T12:34:58.152Z,23.75
2017-09-21T12:35:58.148Z,22.56
2017-09-21T12:36:58.207Z,22.07
2017-09-21T12:37:58.267Z,21.46
2017-09-21T12:38:58.326Z,21.30
2017-09-21T12:39:58.452Z,20.65
2017-09-21T12:40:58.457Z,20.31
2017-09-21T12:41:58.504Z,20.65
2017-09-21T12:42:58.562Z,20.72
2017-09-21T12:43:58.630Z,20.62
2017-09-21T12:44:58.746Z,20.21
2017-09-21T12:45:58.742Z,20.49
2017-09-21T12:46:58.802Z,20.51
2017-09-21T12:47:58.859Z,20.21
2017-09-21T12:48:58.920Z,20.25
2017-09-21T12:49:59.060Z,20.06
2017-09-21T12:50:59.035Z,20.00
2017-09-21T12:51:59.098Z,20.08
2017-09-21T12:52:59.155Z,20.25
2017-09-21T12:53:59.211Z,20.10
2017-09-21T12:54:59.335Z,20.27
2017-09-21T12:55:59.330Z,20.35
2017-09-21T12:56:59.385Z,20.31
2017-09-21T12:57:59.445Z,20.59
2017-09-21T12:58:59.506Z,20.79
2017-09-21T12:59:59.643Z,20.66
2017-09-21T13:00:59.618Z,20.93
2017-09-21T13:01:59.678Z,21.50
2017-09-21T13:02:59.735Z,21.97
2017-09-21T13:03:59.792Z,21.91
2017-09-21T13:04:59.935Z,22.43
2017-09-21T13:05:59.915Z,22.69